createdAt,value
2019-02-03T00:00:54.572Z,97.85
2019-02-03T00:01:55.044Z,97.81
2019-02-03T00:02:55.518Z,97.85
2019-02-03T00:03:55.990Z,97.82
2019-02-03T00:04:56.465Z,97.81
2019-02-03T00:05:56.934Z,97.85
2019-02-03T00:07:03.285Z,97.83
2019-02-03T00:07:57.876Z,97.82
2019-02-03T00:08:58.347Z,97.85
2019-02-03T00:09:58.818Z,97.85
2019-02-03T00:10:59.292Z,97.85
2019-02-03T00:11:59.764Z,97.83
2019-02-03T00:13:00.235Z,97.85
2019-02-03T00:14:00.729Z,97.81
2019-02-03T00:15:01.180Z,97.85
2019-02-03T00:16:01.657Z,97.81
2019-02-03T00:17:02.124Z,97.85
2019-02-03T00:18:02.596Z,97.83
2019-02-03T00:19:03.067Z,97.85
2019-02-03T00:20:03.541Z,97.82
2019-02-03T00:21:04.013Z,97.83
2019-02-03T00:22:04.484Z,97.85
2019-02-03T00:23:04.957Z,97.82
2019-02-03T00:24:05.434Z,97.82
2019-02-03T00:25:05.901Z,97.81
2019-02-03T00:26:06.373Z,97.86
2019-02-03T00:27:06.846Z,97.81
2019-02-03T00:28:07.328Z,97.81
2019-02-03T00:29:07.842Z,97.81
2019-02-03T00:30:08.262Z,97.85
2019-02-03T00:31:08.737Z,97.81
2019-02-03T00:32:09.210Z,97.82
2019-02-03T00:33:09.823Z,97.81
2019-02-03T00:34:10.152Z,97.85
2019-02-03T00:35:10.629Z,97.85
2019-02-03T00:36:11.098Z,97.85
2019-02-03T00:37:16.344Z,97.82
2019-02-03T00:38:21.322Z,97.85
2019-02-03T00:39:12.515Z,97.83
2019-02-03T00:40:13.007Z,97.85
2019-02-03T00:41:13.501Z,97.85
2019-02-03T00:42:13.932Z,97.82
2019-02-03T00:43:14.403Z,97.85
2019-02-03T00:44:14.926Z,97.85
2019-02-03T00:45:15.350Z,97.81
2019-02-03T00:46:15.821Z,97.85
2019-02-03T00:47:16.293Z,97.83
2019-02-03T00:48:16.769Z,97.82
2019-02-03T00:49:17.239Z,97.82
2019-02-03T00:50:17.736Z,97.85
2019-02-03T00:51:18.187Z,97.82
2019-02-03T00:52:18.655Z,97.82
2019-02-03T00:53:19.129Z,97.82
2019-02-03T00:54:19.603Z,97.82
2019-02-03T00:55:20.077Z,97.82
2019-02-03T00:56:20.548Z,97.86
2019-02-03T00:57:21.019Z,97.82
2019-02-03T00:58:21.491Z,97.83
2019-02-03T00:59:21.961Z,97.82
2019-02-03T01:00:22.433Z,97.83
2019-02-03T01:01:22.912Z,97.82
2019-02-03T01:02:23.383Z,97.86
2019-02-03T01:03:26.398Z,97.82
2019-02-03T01:04:24.322Z,97.82
2019-02-03T01:05:24.795Z,97.82
2019-02-03T01:06:25.267Z,97.82
2019-02-03T01:07:27.626Z,97.86
2019-02-03T01:08:26.209Z,97.82
2019-02-03T01:09:26.678Z,97.82
2019-02-03T01:10:27.149Z,97.83
2019-02-03T01:11:27.620Z,97.82
2019-02-03T01:12:28.091Z,97.83
2019-02-03T01:13:28.559Z,97.85
2019-02-03T01:14:29.031Z,97.84
2019-02-03T01:15:32.248Z,97.82
2019-02-03T01:16:29.968Z,97.82
2019-02-03T01:17:30.441Z,97.84
2019-02-03T01:18:30.907Z,97.82
2019-02-03T01:20:31.844Z,97.81
2019-02-03T01:21:32.314Z,97.82
2019-02-03T01:22:32.781Z,97.82
2019-02-03T01:23:33.250Z,97.84
2019-02-03T01:24:33.718Z,97.82
2019-02-03T01:25:34.187Z,97.84
2019-02-03T01:26:34.655Z,97.82
2019-02-03T01:27:35.123Z,97.82
2019-02-03T01:28:35.594Z,97.86
2019-02-03T01:29:36.111Z,97.82
2019-02-03T01:30:36.528Z,97.82
2019-02-03T01:31:36.995Z,97.84
2019-02-03T01:32:37.464Z,97.86
2019-02-03T01:33:37.933Z,97.84
2019-02-03T01:34:38.403Z,97.82
2019-02-03T01:35:38.868Z,97.86
2019-02-03T01:36:39.339Z,97.86
2019-02-03T01:37:40.293Z,97.82
2019-02-03T01:38:40.274Z,97.82
2019-02-03T01:39:40.755Z,97.82
2019-02-03T01:40:41.210Z,97.82
2019-02-03T01:41:41.679Z,97.83
2019-02-03T01:42:42.145Z,97.82
2019-02-03T01:43:42.615Z,97.86
2019-02-03T01:44:43.087Z,97.86
2019-02-03T01:45:43.553Z,97.83
2019-02-03T01:46:44.024Z,97.83
2019-02-03T01:47:44.490Z,97.83
2019-02-03T01:48:44.959Z,97.83
2019-02-03T01:49:45.429Z,97.83
2019-02-03T01:50:45.902Z,97.81
2019-02-03T01:51:46.366Z,97.82
2019-02-03T01:52:46.838Z,97.83
2019-02-03T01:53:47.305Z,97.86
2019-02-03T01:54:47.775Z,97.82
2019-02-03T01:55:48.307Z,97.83
2019-02-03T01:56:48.713Z,97.83
2019-02-03T01:57:49.187Z,97.83
2019-02-03T01:58:49.654Z,97.83
2019-02-03T01:59:50.121Z,97.83
2019-02-03T02:00:50.592Z,97.83
2019-02-03T02:01:51.066Z,97.83
2019-02-03T02:02:51.534Z,97.83
2019-02-03T02:03:52.009Z,97.83
2019-02-03T02:04:52.524Z,97.81
2019-02-03T02:05:52.943Z,97.86
2019-02-03T02:06:53.413Z,97.83
2019-02-03T02:07:53.883Z,97.83
2019-02-03T02:08:54.352Z,97.87
2019-02-03T02:09:54.925Z,97.79
2019-02-03T02:10:55.293Z,97.87
2019-02-03T02:11:55.765Z,97.83
2019-02-03T02:12:56.233Z,97.83
2019-02-03T02:13:56.706Z,97.79
2019-02-03T02:14:57.175Z,97.83
2019-02-03T02:15:57.646Z,97.83
2019-02-03T02:16:58.116Z,97.83
2019-02-03T02:17:58.591Z,97.87
2019-02-03T02:18:59.056Z,97.83
2019-02-03T02:19:59.529Z,97.83
2019-02-03T02:20:59.999Z,97.83
2019-02-03T02:22:00.470Z,97.83
2019-02-03T02:23:00.941Z,97.83
2019-02-03T02:24:01.415Z,97.83
2019-02-03T02:25:01.884Z,97.83
2019-02-03T02:26:02.356Z,97.83
2019-02-03T02:27:02.828Z,97.83
2019-02-03T02:28:03.297Z,97.83
2019-02-03T02:29:03.769Z,97.83
2019-02-03T02:30:04.244Z,97.83
2019-02-03T02:31:04.708Z,97.83
2019-02-03T02:32:05.182Z,97.83
2019-02-03T02:33:05.655Z,97.83
2019-02-03T02:34:06.124Z,97.83
2019-02-03T02:35:06.594Z,97.83
2019-02-03T02:36:07.068Z,97.83
2019-02-03T02:37:07.538Z,97.83
2019-02-03T02:38:08.018Z,97.83
2019-02-03T02:39:08.616Z,97.83
2019-02-03T02:40:12.790Z,97.83
2019-02-03T02:41:09.423Z,97.83
2019-02-03T02:42:09.896Z,97.87
2019-02-03T02:43:10.365Z,97.83
2019-02-03T02:44:10.836Z,97.84
2019-02-03T02:45:11.512Z,97.84
2019-02-03T02:46:11.781Z,97.84
2019-02-03T02:47:12.252Z,97.84
2019-02-03T02:48:12.724Z,97.84
2019-02-03T02:49:13.195Z,97.83
2019-02-03T02:50:13.668Z,97.84
2019-02-03T02:51:14.139Z,97.83
2019-02-03T02:52:14.612Z,97.83
2019-02-03T02:53:15.085Z,97.83
2019-02-03T02:54:15.555Z,97.83
2019-02-03T02:55:16.026Z,97.84
2019-02-03T02:56:16.499Z,97.83
2019-02-03T02:57:17.177Z,97.86
2019-02-03T02:58:17.456Z,97.86
2019-02-03T02:59:17.914Z,97.82
2019-02-03T03:00:18.391Z,97.84
2019-02-03T03:01:18.858Z,97.84
2019-02-03T03:02:19.329Z,97.84
2019-02-03T03:03:19.885Z,97.84
2019-02-03T03:04:20.272Z,97.84
2019-02-03T03:05:20.746Z,97.88
2019-02-03T03:06:21.221Z,97.84
2019-02-03T03:07:21.830Z,97.82
2019-02-03T03:08:22.163Z,97.84
2019-02-03T03:09:22.635Z,97.84
2019-02-03T03:10:23.105Z,97.84
2019-02-03T03:11:23.577Z,97.84
2019-02-03T03:12:24.047Z,97.84
2019-02-03T03:13:24.522Z,97.86
2019-02-03T03:14:24.992Z,97.85
2019-02-03T03:15:25.462Z,97.85
2019-02-03T03:16:25.937Z,97.88
2019-02-03T03:17:26.568Z,97.85
2019-02-03T03:18:26.884Z,97.85
2019-02-03T03:19:27.352Z,97.85
2019-02-03T03:20:27.827Z,97.85
2019-02-03T03:21:28.298Z,97.84
2019-02-03T03:22:28.771Z,97.84
2019-02-03T03:23:29.240Z,97.85
2019-02-03T03:24:29.712Z,97.86
2019-02-03T03:25:30.237Z,97.85
2019-02-03T03:26:30.657Z,97.89
2019-02-03T03:27:31.129Z,97.85
2019-02-03T03:28:31.776Z,97.85
2019-02-03T03:29:33.977Z,97.85
2019-02-03T03:30:32.579Z,97.85
2019-02-03T03:31:33.019Z,97.84
2019-02-03T03:32:33.496Z,97.85
2019-02-03T03:33:33.972Z,97.86
2019-02-03T03:34:34.436Z,97.85
2019-02-03T03:35:34.930Z,97.85
2019-02-03T03:36:35.379Z,97.85
2019-02-03T03:37:35.852Z,97.85
2019-02-03T03:38:36.328Z,97.85
2019-02-03T03:39:37.137Z,97.85
2019-02-03T03:40:37.472Z,97.84
2019-02-03T03:41:37.749Z,97.85
2019-02-03T03:42:38.213Z,97.85
2019-02-03T03:43:38.687Z,97.85
2019-02-03T03:44:39.158Z,97.85
2019-02-03T03:45:39.631Z,97.85
2019-02-03T03:46:40.104Z,97.85
2019-02-03T03:47:40.575Z,97.85
2019-02-03T03:48:41.047Z,97.85
2019-02-03T03:49:41.523Z,97.86
2019-02-03T03:50:42.039Z,97.85
2019-02-03T03:51:42.463Z,97.85
2019-02-03T03:52:42.947Z,97.85
2019-02-03T03:53:43.409Z,97.85
2019-02-03T03:54:43.880Z,97.85
2019-02-03T03:55:44.350Z,97.85
2019-02-03T03:56:44.820Z,97.85
2019-02-03T03:57:45.376Z,97.85
2019-02-03T03:58:45.764Z,97.85
2019-02-03T03:59:46.236Z,97.85
2019-02-03T04:00:46.757Z,97.89
2019-02-03T04:01:47.176Z,97.85
2019-02-03T04:02:47.666Z,97.83
2019-02-03T04:03:48.115Z,97.84
2019-02-03T04:04:48.584Z,97.85
2019-02-03T04:05:49.057Z,97.84
2019-02-03T04:06:49.525Z,97.85
2019-02-03T04:07:49.993Z,97.85
2019-02-03T04:08:50.462Z,97.85
2019-02-03T04:09:50.932Z,97.85
2019-02-03T04:10:51.402Z,97.85
2019-02-03T04:11:51.872Z,97.85
2019-02-03T04:12:52.339Z,97.85
2019-02-03T04:13:52.809Z,97.85
2019-02-03T04:14:53.287Z,97.85
2019-02-03T04:15:53.743Z,97.88
2019-02-03T04:17:54.678Z,97.85
2019-02-03T04:18:55.148Z,97.84
2019-02-03T04:19:55.616Z,97.85
2019-02-03T04:20:56.284Z,97.85
2019-02-03T04:21:56.550Z,97.85
2019-02-03T04:22:57.018Z,97.85
2019-02-03T04:23:57.485Z,97.84
2019-02-03T04:24:57.954Z,97.84
2019-02-03T04:25:58.421Z,97.85
2019-02-03T04:26:58.895Z,97.85
2019-02-03T04:27:59.357Z,97.88
2019-02-03T04:28:59.826Z,97.84
2019-02-03T04:30:00.370Z,97.84
2019-02-03T04:31:00.764Z,97.86
2019-02-03T04:32:01.232Z,97.84
2019-02-03T04:33:01.701Z,97.85
2019-02-03T04:34:02.170Z,97.84
2019-02-03T04:35:02.646Z,97.84
2019-02-03T04:36:03.156Z,97.84
2019-02-03T04:37:03.575Z,97.85
2019-02-03T04:38:04.050Z,97.88
2019-02-03T04:39:04.513Z,97.84
2019-02-03T04:40:04.986Z,97.88
2019-02-03T04:41:05.451Z,97.86
2019-02-03T04:42:05.921Z,97.86
2019-02-03T04:43:06.398Z,97.84
2019-02-03T04:44:06.861Z,97.84
2019-02-03T04:45:07.329Z,97.84
2019-02-03T04:46:07.798Z,97.84
2019-02-03T04:47:08.277Z,97.86
2019-02-03T04:48:08.738Z,97.84
2019-02-03T04:49:09.211Z,97.84
2019-02-03T04:50:09.678Z,97.84
2019-02-03T04:51:10.148Z,97.88
2019-02-03T04:52:10.619Z,97.88
2019-02-03T04:53:11.087Z,97.88
2019-02-03T04:54:11.557Z,97.85
2019-02-03T04:55:12.031Z,97.88
2019-02-03T04:56:12.839Z,97.88
2019-02-03T04:57:12.967Z,97.88
2019-02-03T04:58:13.437Z,97.84
2019-02-03T04:59:13.917Z,97.86
2019-02-03T05:00:14.380Z,97.88
2019-02-03T05:01:14.899Z,97.86
2019-02-03T05:02:15.322Z,97.86
2019-02-03T05:03:15.791Z,97.88
2019-02-03T05:04:16.263Z,97.87
2019-02-03T05:05:16.732Z,97.86
2019-02-03T05:06:17.201Z,97.84
2019-02-03T05:07:17.671Z,97.88
2019-02-03T05:08:18.141Z,97.88
2019-02-03T05:09:18.613Z,97.88
2019-02-03T05:10:19.087Z,97.87
2019-02-03T05:11:19.555Z,97.88
2019-02-03T05:12:20.029Z,97.84
2019-02-03T05:13:20.497Z,97.88
2019-02-03T05:14:20.972Z,97.86
2019-02-03T05:15:21.459Z,97.88
2019-02-03T05:16:21.910Z,97.88
2019-02-03T05:17:22.380Z,97.87
2019-02-03T05:18:22.852Z,97.87
2019-02-03T05:19:23.326Z,97.88
2019-02-03T05:20:23.797Z,97.84
2019-02-03T05:21:24.267Z,97.88
2019-02-03T05:22:24.739Z,97.83
2019-02-03T05:23:25.212Z,97.83
2019-02-03T05:24:25.679Z,97.85
2019-02-03T05:25:26.152Z,97.84
2019-02-03T05:26:26.622Z,97.84
2019-02-03T05:27:27.097Z,97.87
2019-02-03T05:28:27.564Z,97.88
2019-02-03T05:29:28.037Z,97.88
2019-02-03T05:30:28.508Z,97.83
2019-02-03T05:31:28.979Z,97.83
2019-02-03T05:32:29.449Z,97.87
2019-02-03T05:33:29.922Z,97.83
2019-02-03T05:34:30.397Z,97.83
2019-02-03T05:35:30.865Z,97.85
2019-02-03T05:36:31.388Z,97.87
2019-02-03T05:37:31.808Z,97.87
2019-02-03T05:38:32.281Z,97.87
2019-02-03T05:39:32.753Z,97.87
2019-02-03T05:40:33.223Z,97.86
2019-02-03T05:41:33.700Z,97.86
2019-02-03T05:42:34.166Z,97.87
2019-02-03T05:43:34.640Z,97.86
2019-02-03T05:44:35.110Z,97.83
2019-02-03T05:45:35.584Z,97.87
2019-02-03T05:46:36.056Z,97.86
2019-02-03T05:47:36.528Z,97.87
2019-02-03T05:48:36.998Z,97.85
2019-02-03T05:49:37.472Z,97.86
2019-02-03T05:50:37.954Z,97.86
2019-02-03T05:51:38.471Z,97.86
2019-02-03T05:52:38.886Z,97.85
2019-02-03T05:53:39.359Z,97.86
2019-02-03T05:54:39.832Z,97.83
2019-02-03T05:55:40.302Z,97.86
2019-02-03T05:56:40.775Z,97.86
2019-02-03T05:57:41.252Z,97.86
2019-02-03T05:58:41.720Z,97.86
2019-02-03T05:59:42.192Z,97.86
2019-02-03T06:00:42.670Z,97.83
2019-02-03T06:01:43.140Z,97.86
2019-02-03T06:02:43.608Z,97.84
2019-02-03T06:03:44.079Z,97.86
2019-02-03T06:04:44.550Z,97.86
2019-02-03T06:05:45.029Z,97.86
2019-02-03T06:06:45.495Z,97.86
2019-02-03T06:07:45.969Z,97.86
2019-02-03T06:08:46.439Z,97.86
2019-02-03T06:09:46.924Z,97.86
2019-02-03T06:10:47.385Z,97.86
2019-02-03T06:11:47.863Z,97.86
2019-02-03T06:12:48.331Z,97.86
2019-02-03T06:13:48.801Z,97.84
2019-02-03T06:14:49.274Z,97.86
2019-02-03T06:15:49.748Z,97.86
2019-02-03T06:16:50.268Z,97.84
2019-02-03T06:17:50.693Z,97.86
2019-02-03T06:18:51.164Z,97.86
2019-02-03T06:19:51.635Z,97.86
2019-02-03T06:20:52.109Z,97.86
2019-02-03T06:21:52.579Z,97.86
2019-02-03T06:22:53.053Z,97.86
2019-02-03T06:23:53.524Z,97.86
2019-02-03T06:24:53.995Z,97.86
2019-02-03T06:25:54.476Z,97.86
2019-02-03T06:26:54.941Z,97.86
2019-02-03T06:27:55.414Z,97.82
2019-02-03T06:28:55.886Z,97.82
2019-02-03T06:29:56.358Z,97.86
2019-02-03T06:30:56.831Z,97.86
2019-02-03T06:31:57.305Z,97.85
2019-02-03T06:32:57.774Z,97.86
2019-02-03T06:33:58.247Z,97.85
2019-02-03T06:34:58.720Z,97.86
2019-02-03T06:35:59.193Z,97.82
2019-02-03T06:36:59.664Z,97.86
2019-02-03T06:38:00.136Z,97.86
2019-02-03T06:39:00.610Z,97.86
2019-02-03T06:40:01.081Z,97.86
2019-02-03T06:41:01.553Z,97.85
2019-02-03T06:42:02.027Z,97.86
2019-02-03T06:43:02.498Z,97.82
2019-02-03T06:44:02.975Z,97.85
2019-02-03T06:45:03.443Z,97.85
2019-02-03T06:46:03.916Z,97.85
2019-02-03T06:47:04.388Z,97.86
2019-02-03T06:48:04.860Z,97.85
2019-02-03T06:49:05.331Z,97.86
2019-02-03T06:50:05.804Z,97.87
2019-02-03T06:51:06.276Z,97.85
2019-02-03T06:52:06.750Z,97.83
2019-02-03T06:53:07.257Z,97.83
2019-02-03T06:54:08.033Z,97.85
2019-02-03T06:55:08.170Z,97.85
2019-02-03T06:56:08.654Z,97.85
2019-02-03T06:57:09.111Z,97.85
2019-02-03T06:58:09.582Z,97.86
2019-02-03T06:59:10.056Z,97.82
2019-02-03T07:00:10.527Z,97.85
2019-02-03T07:01:10.999Z,97.85
2019-02-03T07:02:11.471Z,97.85
2019-02-03T07:03:11.944Z,97.85
2019-02-03T07:04:14.715Z,97.85
2019-02-03T07:05:12.884Z,97.85
2019-02-03T07:06:13.359Z,97.82
2019-02-03T07:07:13.877Z,97.85
2019-02-03T07:08:14.298Z,97.85
2019-02-03T07:09:14.773Z,97.85
2019-02-03T07:10:15.243Z,97.85
2019-02-03T07:11:15.709Z,97.85
2019-02-03T07:12:16.180Z,97.83
2019-02-03T07:13:16.647Z,97.85
2019-02-03T07:14:17.130Z,97.85
2019-02-03T07:15:17.588Z,97.85
2019-02-03T07:16:18.057Z,97.81
2019-02-03T07:17:18.525Z,97.85
2019-02-03T07:18:18.993Z,97.85
2019-02-03T07:19:19.463Z,97.85
2019-02-03T07:20:19.937Z,97.85
2019-02-03T07:21:20.399Z,97.85
2019-02-03T07:22:20.869Z,97.83
2019-02-03T07:23:21.339Z,97.85
2019-02-03T07:24:21.808Z,97.83
2019-02-03T07:25:22.308Z,97.85
2019-02-03T07:26:22.741Z,97.85
2019-02-03T07:27:23.208Z,97.85
2019-02-03T07:28:23.677Z,97.84
2019-02-03T07:29:24.144Z,97.85
2019-02-03T07:30:24.613Z,97.85
2019-02-03T07:31:25.084Z,97.81
2019-02-03T07:32:25.598Z,97.84
2019-02-03T07:33:26.018Z,97.85
2019-02-03T07:34:26.490Z,97.84
2019-02-03T07:35:26.955Z,97.82
2019-02-03T07:36:27.421Z,97.84
2019-02-03T07:37:27.990Z,97.84
2019-02-03T07:38:28.360Z,97.84
2019-02-03T07:39:28.964Z,97.84
2019-02-03T07:40:29.295Z,97.85
2019-02-03T07:41:29.763Z,97.84
2019-02-03T07:42:30.232Z,97.84
2019-02-03T07:43:30.700Z,97.85
2019-02-03T07:44:31.172Z,97.84
2019-02-03T07:45:31.638Z,97.84
2019-02-03T07:46:32.112Z,97.84
2019-02-03T07:47:32.626Z,97.84
2019-02-03T07:48:33.046Z,97.84
2019-02-03T07:49:33.513Z,97.82
2019-02-03T07:50:33.982Z,97.84
2019-02-03T07:51:34.451Z,97.84
2019-02-03T07:52:34.920Z,97.82
2019-02-03T07:53:35.389Z,97.84
2019-02-03T07:54:35.862Z,97.84
2019-02-03T07:55:36.328Z,97.82
2019-02-03T07:56:36.798Z,97.84
2019-02-03T07:57:37.277Z,97.84
2019-02-03T07:58:37.739Z,97.84
2019-02-03T07:59:38.211Z,97.80
2019-02-03T08:00:38.680Z,97.83
2019-02-03T08:01:39.149Z,97.84
2019-02-03T08:02:39.614Z,97.84
2019-02-03T08:03:40.085Z,97.82
2019-02-03T08:04:40.555Z,97.80
2019-02-03T08:05:41.062Z,97.84
2019-02-03T08:06:41.494Z,97.84
2019-02-03T08:07:42.016Z,97.84
2019-02-03T08:08:42.435Z,97.82
2019-02-03T08:09:42.903Z,97.84
2019-02-03T08:10:43.375Z,97.85
2019-02-03T08:11:43.846Z,97.84
2019-02-03T08:12:44.314Z,97.83
2019-02-03T08:13:44.785Z,97.82
2019-02-03T08:14:45.255Z,97.80
2019-02-03T08:15:45.725Z,97.83
2019-02-03T08:16:46.203Z,97.83
2019-02-03T08:17:46.668Z,97.80
2019-02-03T08:18:47.139Z,97.83
2019-02-03T08:19:47.610Z,97.80
2019-02-03T08:20:48.079Z,97.83
2019-02-03T08:21:48.547Z,97.82
2019-02-03T08:22:49.069Z,97.84
2019-02-03T08:23:51.266Z,97.84
2019-02-03T08:24:49.959Z,97.82
2019-02-03T08:25:50.430Z,97.83
2019-02-03T08:26:50.901Z,97.80
2019-02-03T08:27:51.423Z,97.82
2019-02-03T08:28:51.845Z,97.80
2019-02-03T08:29:52.313Z,97.80
2019-02-03T08:30:52.783Z,97.80
2019-02-03T08:31:53.256Z,97.83
2019-02-03T08:32:53.731Z,97.82
2019-02-03T08:33:54.199Z,97.83
2019-02-03T08:34:54.728Z,97.80
2019-02-03T08:35:55.145Z,97.83
2019-02-03T08:36:55.611Z,97.80
2019-02-03T08:37:56.081Z,97.83
2019-02-03T08:38:56.551Z,97.83
2019-02-03T08:39:57.023Z,97.83
2019-02-03T08:40:57.836Z,97.80
2019-02-03T08:41:57.966Z,97.83
2019-02-03T08:42:58.827Z,97.80
2019-02-03T08:43:58.911Z,97.83
2019-02-03T08:44:59.379Z,97.83
2019-02-03T08:45:59.870Z,97.82
2019-02-03T08:47:00.325Z,97.80
2019-02-03T08:48:01.538Z,97.80
2019-02-03T08:49:01.265Z,97.80
2019-02-03T08:50:01.736Z,97.80
2019-02-03T08:51:02.750Z,97.79
2019-02-03T08:52:03.019Z,97.80
2019-02-03T08:53:03.351Z,97.83
2019-02-03T08:54:03.673Z,97.82
2019-02-03T08:55:04.091Z,97.80
2019-02-03T08:56:04.564Z,97.80
2019-02-03T08:57:05.037Z,97.83
2019-02-03T08:58:05.512Z,97.83
2019-02-03T08:59:05.976Z,97.80
2019-02-03T09:00:06.450Z,97.80
2019-02-03T09:01:06.921Z,97.80
2019-02-03T09:02:07.394Z,97.81
2019-02-03T09:03:08.686Z,97.79
2019-02-03T09:04:08.336Z,97.83
2019-02-03T09:05:08.809Z,97.83
2019-02-03T09:06:09.278Z,97.80
2019-02-03T09:07:09.752Z,97.79
2019-02-03T09:08:10.222Z,97.83
2019-02-03T09:09:10.694Z,97.80
2019-02-03T09:10:11.166Z,97.77
2019-02-03T09:11:11.640Z,97.80
2019-02-03T09:12:12.109Z,97.83
2019-02-03T09:13:12.580Z,97.83
2019-02-03T09:14:13.051Z,97.79
2019-02-03T09:15:13.522Z,97.80
2019-02-03T09:16:13.996Z,97.80
2019-02-03T09:17:14.467Z,97.79
2019-02-03T09:18:14.949Z,97.79
2019-02-03T09:19:15.413Z,97.83
2019-02-03T09:20:15.883Z,97.79
2019-02-03T09:21:16.357Z,97.83
2019-02-03T09:57:24.494Z,97.79
2019-02-03T09:58:24.617Z,97.79
2019-02-03T09:59:25.127Z,97.79
2019-02-03T10:00:25.561Z,97.79
2019-02-03T10:01:26.031Z,97.79
2019-02-03T10:02:26.505Z,97.79
2019-02-03T10:03:26.978Z,97.79
2019-02-03T10:04:27.448Z,97.79
2019-02-03T10:05:27.919Z,97.79
2019-02-03T10:06:28.392Z,97.79
2019-02-03T10:07:28.865Z,97.79
2019-02-03T10:08:40.023Z,97.80
2019-02-03T10:09:29.807Z,97.82
2019-02-03T10:10:30.280Z,97.78
2019-02-03T10:11:30.753Z,97.79
2019-02-03T10:12:31.226Z,97.79
2019-02-03T10:13:31.696Z,97.79
2019-02-03T10:14:32.167Z,97.75
2019-02-03T10:15:32.640Z,97.78
2019-02-03T10:16:33.113Z,97.79
2019-02-03T10:17:33.585Z,97.79
2019-02-03T10:18:34.056Z,97.79
2019-02-03T10:19:34.530Z,97.80
2019-02-03T10:20:35.003Z,97.80
2019-02-03T10:21:35.476Z,97.82
2019-02-03T10:22:35.945Z,97.79
2019-02-03T10:23:36.417Z,97.83
2019-02-03T10:24:42.088Z,97.82
2019-02-03T10:25:37.362Z,97.78
2019-02-03T10:26:37.832Z,97.79
2019-02-03T10:27:38.307Z,97.82
2019-02-03T10:28:38.779Z,97.82
2019-02-03T10:29:39.249Z,97.78
2019-02-03T10:30:39.722Z,97.80
2019-02-03T10:31:40.194Z,97.78
2019-02-03T10:32:40.669Z,97.79
2019-02-03T10:33:41.138Z,97.79
2019-02-03T10:34:41.611Z,97.78
2019-02-03T10:35:42.081Z,97.77
2019-02-03T10:36:42.554Z,97.78
2019-02-03T10:37:43.027Z,97.78
2019-02-03T10:38:43.498Z,97.79
2019-02-03T10:39:43.972Z,97.77
2019-02-03T10:40:44.441Z,97.79
2019-02-03T10:41:44.923Z,97.78
2019-02-03T10:42:45.412Z,97.79
2019-02-03T10:43:45.861Z,97.78
2019-02-03T10:44:46.331Z,97.78
2019-02-03T10:45:46.803Z,97.79
2019-02-03T10:46:47.276Z,97.79
2019-02-03T10:47:47.747Z,97.78
2019-02-03T10:48:48.223Z,97.78
2019-02-03T10:49:48.691Z,97.78
2019-02-03T10:50:49.170Z,97.80
2019-02-03T10:51:49.637Z,97.78
2019-02-03T10:52:50.119Z,97.79
2019-02-03T10:53:50.583Z,97.77
2019-02-03T10:54:51.053Z,97.78
2019-02-03T10:55:51.526Z,97.82
2019-02-03T10:56:51.996Z,97.82
2019-02-03T10:57:52.471Z,97.78
2019-02-03T10:58:52.943Z,97.78
2019-02-03T10:59:53.413Z,97.82
2019-02-03T11:00:55.245Z,97.80
2019-02-03T11:01:54.358Z,97.80
2019-02-03T11:02:54.830Z,97.79
2019-02-03T11:03:55.304Z,97.80
2019-02-03T11:04:55.919Z,97.79
2019-02-03T11:05:59.277Z,97.78
2019-02-03T11:06:56.722Z,97.82
2019-02-03T11:07:57.192Z,97.78
2019-02-03T11:08:57.714Z,97.78
2019-02-03T11:09:58.135Z,97.78
2019-02-03T11:10:58.608Z,97.82
2019-02-03T11:11:59.079Z,97.78
2019-02-03T11:12:59.571Z,97.77
2019-02-03T11:14:00.025Z,97.78
2019-02-03T11:15:00.499Z,97.78
2019-02-03T11:16:00.970Z,97.78
2019-02-03T11:17:01.443Z,97.80
2019-02-03T11:18:01.983Z,97.81
2019-02-03T11:19:02.385Z,97.82
2019-02-03T11:20:02.858Z,97.78
2019-02-03T11:21:03.330Z,97.78
2019-02-03T11:22:03.802Z,97.78
2019-02-03T11:23:04.274Z,97.78
2019-02-03T11:24:04.763Z,97.78
2019-02-03T11:25:05.221Z,97.78
2019-02-03T11:26:05.690Z,97.81
2019-02-03T11:27:06.164Z,97.77
2019-02-03T11:28:06.637Z,97.78
2019-02-03T11:29:07.112Z,97.78
2019-02-03T11:30:07.581Z,97.78
2019-02-03T11:31:08.053Z,97.78
2019-02-03T11:32:08.525Z,97.78
2019-02-03T11:33:09.611Z,97.78
2019-02-03T11:34:09.472Z,97.78
2019-02-03T11:35:09.943Z,97.82
2019-02-03T11:36:10.418Z,97.80
2019-02-03T11:37:10.886Z,97.78
2019-02-03T11:38:11.360Z,97.78
2019-02-03T11:39:11.831Z,97.77
2019-02-03T11:40:12.305Z,97.77
2019-02-03T11:41:12.776Z,97.78
2019-02-03T11:42:13.248Z,97.76
2019-02-03T11:43:13.739Z,97.77
2019-02-03T11:44:14.197Z,97.74
2019-02-03T11:45:14.717Z,97.77
2019-02-03T11:46:15.139Z,97.79
2019-02-03T11:47:15.614Z,97.82
2019-02-03T11:48:16.107Z,97.78
2019-02-03T11:49:16.593Z,97.78
2019-02-03T11:51:17.517Z,97.77
2019-02-03T11:52:17.968Z,97.78
2019-02-03T11:53:18.440Z,97.81
2019-02-03T11:54:18.910Z,97.80
2019-02-03T11:55:19.394Z,97.78
2019-02-03T11:56:19.852Z,97.74
2019-02-03T11:57:20.323Z,97.77
2019-02-03T11:58:20.791Z,97.78
2019-02-03T11:59:21.262Z,97.78
2019-02-03T12:00:22.134Z,97.80
2019-02-03T12:01:22.201Z,97.77
2019-02-03T12:02:22.672Z,97.77
2019-02-03T12:03:23.342Z,97.77
2019-02-03T12:04:23.608Z,97.77
2019-02-03T12:05:24.076Z,97.77
2019-02-03T12:06:24.590Z,97.82
2019-02-03T12:07:25.013Z,97.77
2019-02-03T12:08:25.484Z,97.77
2019-02-03T12:09:27.421Z,97.78
2019-02-03T12:10:26.419Z,97.77
2019-02-03T12:11:26.888Z,97.78
2019-02-03T12:12:27.361Z,97.77
2019-02-03T12:13:27.825Z,97.77
2019-02-03T12:14:28.293Z,97.77
2019-02-03T12:15:28.971Z,97.78
2019-02-03T12:16:29.228Z,97.78
2019-02-03T12:17:29.733Z,97.77
2019-02-03T12:18:30.164Z,97.77
2019-02-03T12:19:30.632Z,97.78
2019-02-03T12:20:31.404Z,97.77
2019-02-03T12:21:31.570Z,97.77
2019-02-03T12:22:32.035Z,97.77
2019-02-03T12:23:32.505Z,97.78
2019-02-03T12:24:32.974Z,97.79
2019-02-03T12:25:33.442Z,97.77
2019-02-03T12:26:36.310Z,97.77
2019-02-03T12:27:34.377Z,97.77
2019-02-03T12:28:34.847Z,97.78
2019-02-03T12:29:35.318Z,97.78
2019-02-03T12:30:35.784Z,97.77
2019-02-03T12:31:36.312Z,97.77
2019-02-03T12:32:36.722Z,97.77
2019-02-03T12:33:37.192Z,97.78
2019-02-03T12:34:37.661Z,97.78
2019-02-03T12:35:38.329Z,97.74
2019-02-03T12:36:40.013Z,97.77
2019-02-03T12:37:39.069Z,97.77
2019-02-03T12:38:39.533Z,97.78
2019-02-03T12:39:40.004Z,97.78
2019-02-03T12:40:40.524Z,97.77
2019-02-03T12:41:40.944Z,97.77
2019-02-03T12:42:41.411Z,97.74
2019-02-03T12:43:41.881Z,97.78
2019-02-03T12:44:42.351Z,97.82
2019-02-03T12:45:42.821Z,97.82
2019-02-03T12:46:43.291Z,97.77
2019-02-03T12:47:43.760Z,97.82
2019-02-03T12:48:44.230Z,97.82
2019-02-03T12:49:44.699Z,97.77
2019-02-03T12:50:45.169Z,97.77
2019-02-03T12:51:45.642Z,97.77
2019-02-03T12:52:46.109Z,97.74
2019-02-03T12:53:46.584Z,97.77
2019-02-03T12:54:47.049Z,97.77
2019-02-03T12:55:47.722Z,97.77
2019-02-03T12:56:47.992Z,97.77
2019-02-03T12:57:48.461Z,97.80
2019-02-03T12:58:48.952Z,97.77
2019-02-03T12:59:49.401Z,97.78
2019-02-03T13:00:49.873Z,97.74
2019-02-03T13:01:50.397Z,97.77
2019-02-03T13:03:51.284Z,97.77
2019-02-03T13:04:51.753Z,97.81
2019-02-03T13:05:52.225Z,97.77
2019-02-03T13:06:52.693Z,97.78
2019-02-03T13:07:53.164Z,97.77
2019-02-03T13:08:53.635Z,97.77
2019-02-03T13:09:54.109Z,97.77
2019-02-03T13:10:54.723Z,97.77
2019-02-03T13:11:55.050Z,97.77
2019-02-03T13:12:55.519Z,97.77
2019-02-03T13:13:56.006Z,97.77
2019-02-03T13:14:56.465Z,97.77
2019-02-03T13:15:56.984Z,97.78
2019-02-03T13:16:57.403Z,97.77
2019-02-03T13:17:57.875Z,97.76
2019-02-03T13:18:58.346Z,97.77
2019-02-03T13:19:58.817Z,97.79
2019-02-03T13:20:59.288Z,97.77
2019-02-03T13:21:59.760Z,97.77
2019-02-03T13:23:00.230Z,97.77
2019-02-03T13:24:00.700Z,97.77
2019-02-03T13:25:01.174Z,97.74
2019-02-03T13:26:01.645Z,97.77
2019-02-03T13:27:02.317Z,97.74
2019-02-03T13:28:02.588Z,97.74
2019-02-03T13:29:03.261Z,97.74
2019-02-03T13:30:03.669Z,97.77
2019-02-03T13:31:04.202Z,97.77
2019-02-03T13:32:10.945Z,97.77
2019-02-03T13:34:05.620Z,97.74
2019-02-03T13:35:05.886Z,97.77
2019-02-03T13:36:06.410Z,97.77
2019-02-03T13:37:06.833Z,97.76
2019-02-03T13:38:07.302Z,97.78
2019-02-03T13:40:08.245Z,97.77